Terminal Aerodrome Forecast
Issued by NWS

Home | Current Version | Previous Version | Graphics & Text | Print | Product List | Glossary On
Versions: 1 2 3 4 5 6 7 8 9 10 11 12 13
000
FTUS43 KMPX 011739
TAFRWF
TAF
KRWF 011739Z 0118/0218 18028G43KT P6SM BKN150
      TEMPO 0118/0121 5SM HZ BKN015
     FM012300 24020G33KT P6SM VCTS BKN060CB OVC120
     FM020200 28010KT P6SM SCT060 BKN250
     FM020600 29010KT P6SM SKC
     FM021500 28016G25KT P6SM SKC=

USA.gov is the U.S. government's official web portal to all federal, state and local government web resources and services.